createdAt,value
2018-10-06T00:00:53.921Z,3.43
2018-10-06T00:06:48.951Z,3.47
2018-10-06T00:12:43.961Z,3.91
2018-10-06T00:18:38.962Z,3.61
2018-10-06T00:24:33.943Z,3.69
2018-10-06T00:30:28.997Z,3.56
2018-10-06T00:36:23.953Z,3.45
2018-10-06T00:42:18.955Z,4.28
2018-10-06T00:48:13.966Z,3.78
2018-10-06T00:54:08.983Z,3.88
2018-10-06T01:00:03.990Z,3.46
2018-10-06T01:05:58.965Z,4.18
2018-10-06T01:11:53.995Z,4.28
2018-10-06T01:17:49.060Z,4.25
2018-10-06T01:23:43.998Z,4.67
2018-10-06T01:29:39.016Z,4.4
2018-10-06T01:35:34.045Z,5
2018-10-06T01:41:29.028Z,4.19
2018-10-06T01:47:24.043Z,4.05
2018-10-06T01:53:19.059Z,4.27
2018-10-06T01:59:14.052Z,4.48
2018-10-06T02:05:09.032Z,4.56
2018-10-06T02:11:04.056Z,4.43
2018-10-06T02:16:59.048Z,4.2
2018-10-06T02:22:54.072Z,4.88
2018-10-06T02:28:49.111Z,4.27
2018-10-06T02:34:44.123Z,4.79
2018-10-06T02:40:39.079Z,4.99
2018-10-06T02:46:34.109Z,5.08
2018-10-06T02:52:29.111Z,4.73
2018-10-06T02:58:24.074Z,4.5
2018-10-06T03:04:19.092Z,5.12
2018-10-06T03:10:14.097Z,5.11
2018-10-06T03:16:09.109Z,5
2018-10-06T03:22:04.112Z,5.15
2018-10-06T03:27:59.131Z,4.71
2018-10-06T03:33:54.212Z,4.71
2018-10-06T03:39:49.128Z,5.21
2018-10-06T03:45:44.128Z,5.67
2018-10-06T03:51:39.121Z,6.41
2018-10-06T03:57:34.138Z,5.84
2018-10-06T04:03:29.130Z,6.59
2018-10-06T04:09:24.202Z,6.42
2018-10-06T04:15:19.169Z,6.77
2018-10-06T04:21:14.170Z,6.61
2018-10-06T04:27:09.186Z,6.55
2018-10-06T04:33:04.208Z,7.5
2018-10-06T04:38:59.183Z,7.07
2018-10-06T04:44:54.195Z,6.44
2018-10-06T04:50:49.207Z,7.24
2018-10-06T04:56:44.206Z,7.58
2018-10-06T05:02:39.220Z,7.25
2018-10-06T05:08:34.210Z,7.3
2018-10-06T05:14:29.205Z,7.35
2018-10-06T05:20:24.229Z,6.91
2018-10-06T05:26:19.265Z,7.47
2018-10-06T05:32:14.291Z,7.9
2018-10-06T05:38:09.233Z,7.25
2018-10-06T05:44:04.226Z,7.33
2018-10-06T05:49:59.249Z,7.63
2018-10-06T05:55:54.252Z,7.78
2018-10-06T06:01:49.264Z,8
2018-10-06T06:07:44.258Z,7.61
2018-10-06T06:13:39.277Z,7.74
2018-10-06T06:19:34.268Z,7.29
2018-10-06T06:25:29.280Z,7.39
2018-10-06T06:31:24.413Z,7.47
2018-10-06T06:37:19.287Z,7.35
2018-10-06T06:43:14.369Z,7.13
2018-10-06T06:49:09.304Z,7.87
2018-10-06T06:55:04.374Z,8.06
2018-10-06T07:00:59.331Z,8.23
2018-10-06T07:06:54.340Z,7.53
2018-10-06T07:12:49.338Z,7.51
2018-10-06T07:18:44.346Z,7.45
2018-10-06T07:24:39.352Z,7.34
2018-10-06T07:30:34.343Z,6.57
2018-10-06T07:36:29.339Z,6.63
2018-10-06T07:42:24.350Z,7.81
2018-10-06T07:48:19.479Z,7.25
2018-10-06T07:54:14.451Z,7.34
2018-10-06T08:00:09.425Z,6.86
2018-10-06T08:06:04.429Z,6.86
2018-10-06T08:11:59.472Z,6.9
2018-10-06T08:17:54.423Z,6.56
2018-10-06T08:23:53.444Z,6.68
2018-10-06T08:29:44.386Z,5.66
2018-10-06T08:35:43.560Z,6.59
2018-10-06T08:41:34.545Z,6.87
2018-10-06T08:47:29.395Z,6.14
2018-10-06T08:53:24.417Z,6.07
2018-10-06T08:59:19.406Z,6.59
2018-10-06T09:05:14.432Z,6.5
2018-10-06T09:11:09.441Z,5.98
2018-10-06T09:17:04.413Z,7.01
2018-10-06T09:22:59.464Z,6.45
2018-10-06T09:28:54.496Z,8.1
2018-10-06T09:34:49.467Z,8.07
2018-10-06T09:40:44.480Z,6.95
2018-10-06T09:46:39.483Z,7.92
2018-10-06T09:52:34.509Z,7.23
2018-10-06T09:58:29.473Z,6.68
2018-10-06T10:04:24.507Z,7.05
2018-10-06T10:10:19.523Z,7.12
2018-10-06T10:16:14.535Z,6.98
2018-10-06T10:22:09.633Z,6.75
2018-10-06T10:28:04.529Z,6.39
2018-10-06T10:33:59.558Z,6.27
2018-10-06T10:39:54.530Z,5.56
2018-10-06T10:45:49.528Z,5.06
2018-10-06T10:51:44.527Z,5.29
2018-10-06T10:57:39.627Z,5.49
2018-10-06T11:03:34.545Z,5.53
2018-10-06T11:09:29.544Z,5.49
2018-10-06T11:15:24.532Z,4.86
2018-10-06T11:21:19.563Z,5.86
2018-10-06T11:27:14.537Z,5.73
2018-10-06T11:33:09.581Z,5.89
2018-10-06T11:39:04.571Z,5.69
2018-10-06T11:44:59.573Z,6.01
2018-10-06T11:50:54.591Z,6.21
2018-10-06T11:56:49.561Z,6.44
2018-10-06T12:02:44.598Z,6.04
2018-10-06T12:08:39.568Z,6.68
2018-10-06T12:14:34.601Z,6.63
2018-10-06T12:20:29.679Z,6.63
2018-10-06T12:26:24.639Z,6.13
2018-10-06T12:32:19.601Z,7.07
2018-10-06T12:38:14.660Z,6.21
2018-10-06T12:44:09.626Z,6.11
2018-10-06T12:50:04.654Z,6.31
2018-10-06T12:55:59.629Z,6.5
2018-10-06T13:01:54.671Z,6.5
2018-10-06T13:07:49.645Z,5.75
2018-10-06T13:13:44.688Z,6.25
2018-10-06T13:19:39.671Z,5.7
2018-10-06T13:25:34.665Z,6.09
2018-10-06T13:31:29.724Z,6
2018-10-06T13:37:24.680Z,5.76
2018-10-06T13:43:19.704Z,5.53
2018-10-06T13:49:14.680Z,5.86
2018-10-06T13:55:09.698Z,5.33
2018-10-06T14:01:04.697Z,5.54
2018-10-06T14:06:59.694Z,5.43
2018-10-06T14:12:54.765Z,5.81
2018-10-06T14:18:49.719Z,4.62
2018-10-06T14:24:44.707Z,4.39
2018-10-06T14:30:39.718Z,5.5
2018-10-06T14:36:34.720Z,4.37
2018-10-06T14:42:29.746Z,4.91
2018-10-06T14:48:24.731Z,4.59
2018-10-06T14:54:19.768Z,4.18
2018-10-06T15:00:14.751Z,4.64
2018-10-06T15:06:09.751Z,3.61
2018-10-06T15:12:04.754Z,7.9
2018-10-06T15:17:59.776Z,4.14
2018-10-06T15:23:54.768Z,3.99
2018-10-06T15:29:49.770Z,3.88
2018-10-06T15:35:44.778Z,3.83
2018-10-06T15:41:39.800Z,3.58
2018-10-06T15:47:34.827Z,4.08
2018-10-06T15:53:29.832Z,4.71
2018-10-06T15:59:24.812Z,4.88
2018-10-06T16:05:19.801Z,4.48
2018-10-06T16:11:14.833Z,4.06
2018-10-06T16:17:09.819Z,3.54
2018-10-06T16:23:04.819Z,3.34
2018-10-06T16:28:59.825Z,3.39
2018-10-06T16:34:54.869Z,3.21
2018-10-06T16:40:49.856Z,3.38
2018-10-06T16:46:44.876Z,2.95
2018-10-06T16:52:39.874Z,3.16
2018-10-06T16:58:34.904Z,3.2
2018-10-06T17:04:29.857Z,3.25
2018-10-06T17:10:24.910Z,3.44
2018-10-06T17:16:19.902Z,3.16
2018-10-06T17:22:14.904Z,2.8
2018-10-06T17:28:09.893Z,3.2
2018-10-06T17:34:04.897Z,3.01
2018-10-06T17:39:59.889Z,3.99
2018-10-06T17:45:54.916Z,3.05
2018-10-06T17:51:49.931Z,3.16
2018-10-06T17:57:44.936Z,2.45
2018-10-06T18:03:39.926Z,2.6
2018-10-06T18:09:34.996Z,2.4
2018-10-06T18:15:29.936Z,2.68
2018-10-06T18:21:25.111Z,2.84
2018-10-06T18:27:20.040Z,2.15
2018-10-06T18:33:14.976Z,2.68
2018-10-06T18:39:09.966Z,2.61
2018-10-06T18:45:04.964Z,2.58
2018-10-06T18:50:59.945Z,1.98
2018-10-06T18:56:55.011Z,2.11
2018-10-06T19:02:49.964Z,2.31
2018-10-06T19:08:45.024Z,3.5
2018-10-06T19:14:40.000Z,2.13
2018-10-06T19:20:35.002Z,2.4
2018-10-06T19:26:30.028Z,2.71
2018-10-06T19:32:25.088Z,2.26
2018-10-06T19:38:20.047Z,2.1
2018-10-06T19:44:15.016Z,2.26
2018-10-06T19:50:10.021Z,2.22
2018-10-06T19:56:05.024Z,2.05
2018-10-06T20:02:00.015Z,2.12
2018-10-06T20:07:55.031Z,2.36
2018-10-06T20:13:50.028Z,1.56
2018-10-06T20:19:45.054Z,2.04
2018-10-06T20:25:40.061Z,1.83
2018-10-06T20:31:35.059Z,2.52
2018-10-06T20:37:30.081Z,2.23
2018-10-06T20:43:25.055Z,1.49
2018-10-06T20:49:20.168Z,2.19
2018-10-06T20:55:15.072Z,2.12
2018-10-06T21:01:10.106Z,2.01
2018-10-06T21:07:05.103Z,1.78
2018-10-06T21:13:00.090Z,2.25
2018-10-06T21:18:55.111Z,2.4
2018-10-06T21:24:50.111Z,2.21
2018-10-06T21:30:45.111Z,2.56
2018-10-06T21:36:40.111Z,2.39
2018-10-06T21:42:35.093Z,2.34
2018-10-06T21:48:30.149Z,2.33
2018-10-06T21:54:25.122Z,2.17
2018-10-06T22:00:20.166Z,1.9
2018-10-06T22:06:15.147Z,2.58
2018-10-06T22:12:10.141Z,2.31
2018-10-06T22:18:05.134Z,2.35
2018-10-06T22:24:00.146Z,2.2
2018-10-06T22:29:55.173Z,2.42
2018-10-06T22:35:50.161Z,2.18
2018-10-06T22:41:45.186Z,2.51
2018-10-06T22:47:40.196Z,2.55
2018-10-06T22:53:35.226Z,2.57
2018-10-06T22:59:30.206Z,2.03
2018-10-06T23:05:25.195Z,2.2
2018-10-06T23:11:20.208Z,2.07
2018-10-06T23:17:15.189Z,2.33
2018-10-06T23:23:10.213Z,2.35
2018-10-06T23:29:05.257Z,2.44
2018-10-06T23:35:00.234Z,2.21
2018-10-06T23:40:55.252Z,1.88
2018-10-06T23:46:50.243Z,2.03
2018-10-06T23:52:45.267Z,2.1
2018-10-06T23:58:40.235Z,2.39
